createdAt,value
2022-11-19T00:00:47.589Z,14.00
2022-11-19T00:03:19.025Z,13.90
2022-11-19T00:05:47.369Z,14.00
2022-11-19T00:08:17.937Z,13.90
2022-11-19T00:10:48.297Z,13.90
2022-11-19T00:13:15.473Z,13.90
2022-11-19T00:15:42.618Z,13.90
2022-11-19T00:18:09.814Z,13.90
2022-11-19T00:20:36.911Z,13.80
2022-11-19T00:23:04.023Z,13.80
2022-11-19T00:25:31.337Z,13.80
2022-11-19T00:27:59.579Z,13.80
2022-11-19T00:30:46.906Z,13.80
2022-11-19T00:33:13.874Z,13.80
2022-11-19T00:35:41.003Z,13.80
2022-11-19T00:38:08.165Z,13.80
2022-11-19T00:40:35.279Z,13.70
2022-11-19T00:43:21.101Z,13.70
2022-11-19T00:45:49.104Z,13.70
2022-11-19T00:48:16.182Z,13.70
2022-11-19T00:50:43.318Z,13.70
2022-11-19T00:53:10.426Z,13.70
2022-11-19T00:55:38.802Z,13.70
2022-11-19T00:58:05.925Z,13.70
2022-11-19T01:00:33.024Z,13.70
2022-11-19T01:03:00.212Z,13.70
2022-11-19T01:05:27.390Z,13.70
2022-11-19T01:07:54.930Z,13.70
2022-11-19T01:10:22.098Z,13.60
2022-11-19T01:13:07.920Z,13.60
2022-11-19T01:15:35.105Z,13.60
2022-11-19T01:18:02.225Z,13.60
2022-11-19T01:20:29.368Z,13.60
2022-11-19T01:22:56.623Z,13.60
2022-11-19T01:25:23.675Z,13.60
2022-11-19T01:27:51.809Z,13.60
2022-11-19T01:30:19.006Z,13.50
2022-11-19T01:32:46.152Z,13.50
2022-11-19T01:35:13.251Z,13.50
2022-11-19T01:37:40.412Z,13.50
2022-11-19T01:40:07.825Z,13.50
2022-11-19T01:42:50.267Z,13.50
2022-11-19T01:45:23.320Z,13.50
2022-11-19T01:47:51.712Z,13.50
2022-11-19T01:50:18.945Z,13.50
2022-11-19T01:52:46.092Z,13.50
2022-11-19T01:55:13.215Z,13.50
2022-11-19T01:57:40.983Z,13.40
2022-11-19T02:00:08.527Z,13.50
2022-11-19T02:02:35.772Z,13.40
2022-11-19T02:05:03.188Z,13.40
2022-11-19T02:07:33.120Z,13.40
2022-11-19T02:10:01.465Z,13.40
2022-11-19T02:12:31.372Z,13.40
2022-11-19T02:15:01.350Z,13.40
2022-11-19T02:17:31.402Z,13.40
2022-11-19T02:20:01.648Z,13.40
2022-11-19T02:22:34.683Z,13.40
2022-11-19T02:25:01.781Z,13.40
2022-11-19T02:27:47.727Z,13.40
2022-11-19T02:30:18.275Z,13.40
2022-11-19T02:32:54.318Z,13.40
2022-11-19T02:35:24.418Z,13.40
2022-11-19T02:37:54.317Z,13.30
2022-11-19T02:40:27.217Z,13.40
2022-11-19T02:43:07.935Z,13.40
2022-11-19T02:45:37.693Z,13.40
2022-11-19T02:48:25.148Z,13.40
2022-11-19T02:50:53.674Z,13.30
2022-11-19T02:53:21.605Z,13.30
2022-11-19T02:56:08.658Z,13.30
2022-11-19T02:58:56.057Z,13.30
2022-11-19T03:01:42.185Z,13.30
2022-11-19T03:04:28.625Z,13.30
2022-11-19T03:06:57.796Z,13.30
2022-11-19T03:09:25.034Z,13.30
2022-11-19T03:11:57.628Z,13.20
2022-11-19T03:14:45.544Z,13.30
2022-11-19T03:17:12.632Z,13.30
2022-11-19T03:19:43.119Z,13.20
2022-11-19T03:22:15.863Z,13.20
2022-11-19T03:24:49.364Z,13.20
2022-11-19T03:27:18.368Z,13.20
2022-11-19T03:29:47.829Z,13.20
2022-11-19T03:32:17.306Z,13.20
2022-11-19T03:34:45.847Z,13.20
2022-11-19T03:37:14.771Z,13.20
2022-11-19T03:39:42.698Z,13.20
2022-11-19T03:42:11.515Z,13.10
2022-11-19T03:44:47.042Z,13.10
2022-11-19T03:47:24.604Z,13.10
2022-11-19T03:50:00.905Z,13.10
2022-11-19T03:52:28.205Z,13.10
2022-11-19T03:54:55.337Z,13.10
2022-11-19T03:57:24.135Z,13.00
2022-11-19T03:59:51.304Z,13.00
2022-11-19T04:02:18.765Z,13.10
2022-11-19T04:04:45.989Z,13.00
2022-11-19T04:07:14.643Z,13.00
2022-11-19T04:09:42.465Z,13.00
2022-11-19T04:12:15.361Z,13.00
2022-11-19T04:14:42.545Z,13.00
2022-11-19T04:17:09.635Z,13.00
2022-11-19T04:19:36.840Z,13.00
2022-11-19T04:22:04.107Z,13.00
2022-11-19T04:24:31.309Z,13.00
2022-11-19T04:26:58.414Z,13.00
2022-11-19T04:29:25.589Z,12.90
2022-11-19T04:31:52.732Z,12.90
2022-11-19T04:34:20.093Z,12.90
2022-11-19T04:36:47.249Z,12.90
2022-11-19T04:39:14.338Z,12.90
2022-11-19T04:41:41.497Z,12.90
2022-11-19T04:44:08.759Z,12.90
2022-11-19T04:46:36.007Z,12.80
2022-11-19T04:49:03.194Z,12.80
2022-11-19T04:51:30.358Z,12.80
2022-11-19T04:53:57.517Z,12.80
2022-11-19T04:56:24.652Z,12.80
2022-11-19T04:58:51.804Z,12.80
2022-11-19T05:01:20.624Z,12.80
2022-11-19T05:03:48.060Z,12.70
2022-11-19T05:06:15.251Z,12.80
2022-11-19T05:08:42.378Z,12.70
2022-11-19T05:11:09.507Z,12.70
2022-11-19T05:13:36.643Z,12.70
2022-11-19T05:16:03.846Z,12.70
2022-11-19T05:18:30.991Z,12.70
2022-11-19T05:20:58.134Z,12.70
2022-11-19T05:23:25.570Z,12.70
2022-11-19T05:25:52.723Z,12.70
2022-11-19T05:28:24.830Z,12.60
2022-11-19T05:31:00.406Z,12.60
2022-11-19T05:33:31.200Z,12.60
2022-11-19T05:36:01.144Z,12.60
2022-11-19T05:38:28.265Z,12.60
2022-11-19T05:40:55.497Z,12.60
2022-11-19T05:43:22.648Z,12.60
2022-11-19T05:45:49.855Z,12.60
2022-11-19T05:48:16.943Z,12.60
2022-11-19T05:50:44.093Z,12.50
2022-11-19T05:53:11.324Z,12.50
2022-11-19T05:55:38.497Z,12.50
2022-11-19T05:58:05.653Z,12.50
2022-11-19T06:00:32.807Z,12.50
2022-11-19T06:03:00.006Z,12.50
2022-11-19T06:05:27.240Z,12.40
2022-11-19T06:07:54.412Z,12.40
2022-11-19T06:10:21.543Z,12.40
2022-11-19T06:12:48.731Z,12.40
2022-11-19T06:15:15.964Z,12.50
2022-11-19T06:17:43.163Z,12.40
2022-11-19T06:20:11.320Z,12.40
2022-11-19T06:22:38.686Z,12.50
2022-11-19T06:25:06.063Z,12.40
2022-11-19T06:27:33.545Z,12.40
2022-11-19T06:30:00.786Z,12.40
2022-11-19T06:32:28.037Z,12.40
2022-11-19T06:34:55.123Z,12.50
2022-11-19T06:37:22.361Z,12.50
2022-11-19T06:39:49.563Z,12.60
2022-11-19T06:42:35.195Z,12.60
2022-11-19T06:45:11.856Z,12.60
2022-11-19T06:47:39.524Z,12.60
2022-11-19T06:50:07.807Z,12.70
2022-11-19T06:52:35.037Z,12.60
2022-11-19T06:55:02.265Z,12.70
2022-11-19T06:57:29.492Z,12.60
2022-11-19T06:59:56.990Z,12.70
2022-11-19T07:02:24.157Z,12.80
2022-11-19T07:04:51.292Z,12.80
2022-11-19T07:07:18.468Z,12.80
2022-11-19T07:09:45.590Z,12.80
2022-11-19T07:12:12.787Z,12.80
2022-11-19T07:14:39.927Z,12.70
2022-11-19T07:17:07.136Z,12.70
2022-11-19T07:19:34.254Z,12.70
2022-11-19T07:22:01.408Z,12.70
2022-11-19T07:24:28.499Z,12.80
2022-11-19T07:26:55.734Z,12.80
2022-11-19T07:29:23.181Z,12.80
2022-11-19T07:31:50.857Z,12.80
2022-11-19T07:34:18.365Z,12.80
2022-11-19T07:36:46.129Z,12.80
2022-11-19T07:39:13.341Z,12.90
2022-11-19T07:41:59.146Z,13.00
2022-11-19T07:44:26.421Z,13.10
2022-11-19T07:46:53.572Z,13.20
2022-11-19T07:49:21.202Z,13.50
2022-11-19T07:51:48.568Z,14.60
2022-11-19T07:54:15.748Z,15.70
2022-11-19T07:56:42.856Z,16.90
2022-11-19T07:59:10.337Z,17.40
2022-11-19T08:01:37.938Z,17.50
2022-11-19T08:04:05.597Z,16.90
2022-11-19T08:06:34.481Z,16.40
2022-11-19T08:09:02.389Z,16.10
2022-11-19T08:11:29.585Z,16.30
2022-11-19T08:13:58.270Z,17.00
2022-11-19T08:16:43.976Z,17.80
2022-11-19T08:19:12.953Z,18.60
2022-11-19T08:21:41.004Z,19.40
2022-11-19T08:24:11.003Z,19.40
2022-11-19T08:26:38.266Z,18.90
2022-11-19T08:29:05.790Z,18.60
2022-11-19T08:31:33.038Z,18.60
2022-11-19T08:34:03.637Z,18.90
2022-11-19T08:36:30.923Z,19.20
2022-11-19T08:38:58.989Z,19.30
2022-11-19T08:41:45.276Z,19.30
2022-11-19T08:44:12.868Z,19.40
2022-11-19T08:46:40.664Z,19.30
2022-11-19T08:49:07.874Z,19.00
2022-11-19T08:51:35.107Z,19.70
2022-11-19T08:54:02.208Z,20.10
2022-11-19T08:56:29.413Z,20.50
2022-11-19T08:59:02.305Z,20.20
2022-11-19T09:01:29.995Z,19.10
2022-11-19T09:03:57.084Z,18.30
2022-11-19T09:06:24.300Z,18.10
2022-11-19T09:08:51.505Z,18.10
2022-11-19T09:11:19.803Z,17.90
2022-11-19T09:13:46.986Z,17.50
2022-11-19T09:16:14.390Z,17.30
2022-11-19T09:18:42.428Z,17.30
2022-11-19T09:21:10.562Z,17.10
2022-11-19T09:23:38.288Z,17.30
2022-11-19T09:26:13.255Z,17.40
2022-11-19T09:28:40.930Z,17.30
2022-11-19T09:31:10.395Z,17.10
2022-11-19T09:33:39.428Z,16.40
2022-11-19T09:36:06.751Z,15.90
2022-11-19T09:38:35.900Z,15.90
2022-11-19T09:41:14.411Z,16.00
2022-11-19T09:43:45.190Z,16.50
2022-11-19T09:46:27.689Z,16.60
2022-11-19T09:48:55.787Z,16.90
2022-11-19T09:51:29.124Z,16.80
2022-11-19T09:53:58.692Z,16.80
2022-11-19T09:56:28.026Z,16.60
2022-11-19T09:58:55.645Z,16.40
2022-11-19T10:01:23.381Z,16.30
2022-11-19T10:03:51.812Z,16.10
2022-11-19T10:06:25.309Z,15.80
2022-11-19T10:08:55.213Z,15.70
2022-11-19T10:11:22.391Z,15.60
2022-11-19T10:14:04.907Z,15.70
2022-11-19T10:16:38.842Z,15.60
2022-11-19T10:19:20.058Z,15.50
2022-11-19T10:21:59.425Z,15.60
2022-11-19T10:24:37.008Z,15.70
2022-11-19T10:27:12.287Z,15.70
2022-11-19T10:29:40.422Z,15.70
2022-11-19T10:32:26.210Z,15.60
2022-11-19T10:34:58.592Z,15.60
2022-11-19T10:37:29.502Z,15.80
2022-11-19T10:40:03.105Z,16.00
2022-11-19T10:42:30.221Z,16.50
2022-11-19T10:45:03.216Z,16.70
2022-11-19T10:47:34.663Z,16.70
2022-11-19T10:50:05.587Z,16.80
2022-11-19T10:52:37.932Z,16.70
2022-11-19T10:55:15.948Z,16.20
2022-11-19T10:57:43.911Z,16.00
2022-11-19T11:00:11.338Z,15.90
2022-11-19T11:02:38.400Z,15.90
2022-11-19T11:05:05.605Z,16.20
2022-11-19T11:08:02.176Z,16.30
2022-11-19T11:10:37.364Z,16.30
2022-11-19T11:13:46.164Z,16.10
2022-11-19T11:16:18.140Z,16.00
2022-11-19T11:18:46.028Z,15.90
2022-11-19T11:21:28.939Z,15.70
2022-11-19T11:23:56.596Z,15.70
2022-11-19T11:26:28.154Z,15.60
2022-11-19T11:28:56.704Z,15.60
2022-11-19T11:31:31.461Z,15.40
2022-11-19T11:33:58.735Z,15.40
2022-11-19T11:36:28.102Z,15.40
2022-11-19T11:38:56.827Z,15.30
2022-11-19T11:44:20.921Z,15.30
2022-11-19T11:46:49.259Z,15.30
2022-11-19T11:49:39.707Z,15.20
2022-11-19T11:52:21.076Z,15.10
2022-11-19T11:54:54.352Z,15.20
2022-11-19T11:57:23.051Z,15.30
2022-11-19T11:59:50.246Z,15.20
2022-11-19T12:02:20.601Z,15.20
2022-11-19T12:04:48.996Z,15.20
2022-11-19T12:07:21.969Z,15.10
2022-11-19T12:09:56.013Z,18.40
2022-11-19T12:12:43.871Z,15.00
2022-11-19T12:15:20.392Z,15.20
2022-11-19T12:18:12.576Z,15.10
2022-11-19T12:20:44.162Z,15.10
2022-11-19T12:23:22.479Z,15.10
2022-11-19T12:25:52.891Z,15.00
2022-11-19T12:28:35.404Z,14.90
2022-11-19T12:31:11.805Z,15.00
2022-11-19T12:33:48.110Z,15.10
2022-11-19T12:36:34.082Z,15.00
2022-11-19T12:39:01.237Z,15.00
2022-11-19T12:41:37.813Z,14.90
2022-11-19T12:44:28.046Z,14.90
2022-11-19T12:47:04.234Z,14.90
2022-11-19T12:49:34.093Z,14.80
2022-11-19T12:52:19.775Z,14.90
2022-11-19T12:54:56.628Z,14.80
2022-11-19T12:57:23.774Z,14.80
2022-11-19T12:59:50.927Z,14.70
2022-11-19T13:02:44.479Z,14.70
2022-11-19T13:05:41.251Z,14.70
2022-11-19T13:08:30.829Z,14.70
2022-11-19T13:11:13.496Z,14.70
2022-11-19T13:13:44.272Z,14.70
2022-11-19T13:16:12.849Z,14.70
2022-11-19T13:18:41.729Z,14.70
2022-11-19T13:21:16.448Z,14.60
2022-11-19T13:23:45.718Z,14.60
2022-11-19T13:26:17.747Z,14.70
2022-11-19T13:29:03.703Z,14.60
2022-11-19T13:31:34.014Z,14.60
2022-11-19T13:34:17.536Z,14.50
2022-11-19T13:37:01.311Z,14.60
2022-11-19T13:39:33.897Z,14.60
2022-11-19T13:42:20.319Z,14.60
2022-11-19T13:44:47.818Z,14.60
2022-11-19T13:47:25.784Z,14.60
2022-11-19T13:49:55.956Z,14.70
2022-11-19T13:52:30.880Z,14.70
2022-11-19T13:54:59.348Z,14.60
2022-11-19T13:57:26.568Z,14.70
2022-11-19T14:00:04.291Z,14.80
2022-11-19T14:02:46.076Z,14.60
2022-11-19T14:05:19.266Z,14.60
2022-11-19T14:07:49.469Z,14.50
2022-11-19T14:10:16.697Z,14.40
2022-11-19T14:12:43.867Z,14.40
2022-11-19T14:15:48.498Z,14.40
2022-11-19T14:18:42.970Z,14.40
2022-11-19T14:21:41.092Z,14.30
2022-11-19T14:24:42.380Z,14.30
2022-11-19T14:27:22.882Z,14.30
2022-11-19T14:29:50.006Z,14.30
2022-11-19T14:32:18.363Z,14.30
2022-11-19T14:35:00.953Z,14.30
2022-11-19T14:37:32.014Z,14.20
2022-11-19T14:40:01.138Z,14.30
2022-11-19T14:42:28.277Z,14.30
2022-11-19T14:45:01.325Z,14.30
2022-11-19T14:47:33.466Z,14.20
2022-11-19T14:50:02.416Z,14.20
2022-11-19T14:52:32.069Z,14.20
2022-11-19T14:55:06.726Z,14.20
2022-11-19T14:57:39.238Z,14.10
2022-11-19T15:00:23.794Z,14.00
2022-11-19T15:02:51.719Z,14.00
2022-11-19T15:05:19.959Z,14.00
2022-11-19T15:07:54.279Z,14.00
2022-11-19T15:10:25.963Z,14.00
2022-11-19T15:13:02.359Z,13.90
2022-11-19T15:15:41.044Z,13.90
2022-11-19T15:18:13.238Z,13.90
2022-11-19T15:20:46.288Z,13.80
2022-11-19T15:23:16.492Z,13.80
2022-11-19T15:28:28.648Z,13.70
2022-11-19T15:31:04.681Z,13.70
2022-11-19T15:33:46.112Z,13.70
2022-11-19T15:36:16.076Z,13.70
2022-11-19T15:38:54.867Z,13.70
2022-11-19T15:41:23.129Z,13.60
2022-11-19T15:43:52.148Z,13.60
2022-11-19T15:46:30.757Z,13.60
2022-11-19T15:49:10.083Z,13.60
2022-11-19T15:51:49.803Z,13.60
2022-11-19T15:54:17.048Z,13.50
2022-11-19T15:56:47.768Z,13.50
2022-11-19T15:59:15.572Z,13.50
2022-11-19T16:01:43.097Z,13.40
2022-11-19T16:04:16.698Z,13.40
2022-11-19T16:06:45.371Z,13.40
2022-11-19T16:09:21.250Z,13.40
2022-11-19T16:12:07.095Z,13.40
2022-11-19T16:15:12.858Z,13.40
2022-11-19T16:17:48.838Z,13.30
2022-11-19T16:20:20.899Z,13.30
2022-11-19T16:22:48.023Z,13.30
2022-11-19T16:25:23.357Z,13.30
2022-11-19T16:27:50.712Z,13.30
2022-11-19T16:30:22.448Z,13.20
2022-11-19T16:32:49.932Z,13.20
2022-11-19T16:35:24.839Z,13.30
2022-11-19T16:37:53.255Z,13.20
2022-11-19T16:40:22.377Z,13.20
2022-11-19T16:43:00.251Z,13.20
2022-11-19T16:45:28.694Z,13.20
2022-11-19T16:47:57.285Z,13.20
2022-11-19T16:50:40.989Z,13.20
2022-11-19T16:53:11.043Z,13.20
2022-11-19T16:55:39.192Z,13.20
2022-11-19T16:58:14.275Z,13.20
2022-11-19T17:00:45.164Z,13.20
2022-11-19T17:03:18.244Z,13.10
2022-11-19T17:05:46.308Z,13.20
2022-11-19T17:08:32.732Z,13.20
2022-11-19T17:11:47.913Z,13.10
2022-11-19T17:14:20.675Z,13.10
2022-11-19T17:16:49.140Z,13.20
2022-11-19T17:19:23.482Z,13.30
2022-11-19T17:21:55.021Z,13.50
2022-11-19T17:24:27.534Z,13.60
2022-11-19T17:26:55.353Z,13.80
2022-11-19T17:29:23.587Z,13.80
2022-11-19T17:31:52.118Z,13.80
2022-11-19T17:34:39.476Z,13.90
2022-11-19T17:37:07.933Z,13.90
2022-11-19T17:39:35.104Z,13.90
2022-11-19T17:42:21.219Z,13.90
2022-11-19T17:44:48.351Z,14.00
2022-11-19T17:47:24.521Z,14.00
2022-11-19T17:49:54.740Z,14.00
2022-11-19T17:52:29.140Z,14.00
2022-11-19T17:55:04.271Z,14.00
2022-11-19T17:57:32.067Z,14.00
2022-11-19T17:59:59.252Z,14.00
2022-11-19T18:02:26.422Z,14.00
2022-11-19T18:04:53.752Z,13.90
2022-11-19T18:07:20.904Z,14.00
2022-11-19T18:09:48.105Z,14.00
2022-11-19T18:12:17.343Z,14.00
2022-11-19T18:14:44.576Z,14.10
2022-11-19T18:17:12.860Z,14.10
2022-11-19T18:19:40.243Z,14.10
2022-11-19T18:22:12.932Z,14.00
2022-11-19T18:24:40.091Z,14.00
2022-11-19T18:27:07.227Z,14.00
2022-11-19T18:29:34.352Z,14.00
2022-11-19T18:32:01.440Z,14.00
2022-11-19T18:34:28.570Z,13.90
2022-11-19T18:36:55.692Z,13.90
2022-11-19T18:39:23.332Z,14.00
2022-11-19T18:41:50.960Z,14.00
2022-11-19T18:44:33.525Z,14.00
2022-11-19T18:47:02.052Z,14.00
2022-11-19T18:49:29.355Z,14.00
2022-11-19T18:51:56.586Z,14.00
2022-11-19T18:54:23.808Z,13.90
2022-11-19T18:56:51.161Z,14.00
2022-11-19T18:59:18.758Z,13.90
2022-11-19T19:01:46.591Z,13.90
2022-11-19T19:04:14.681Z,13.90
2022-11-19T19:06:42.127Z,13.90
2022-11-19T19:09:10.428Z,13.90
2022-11-19T19:11:56.229Z,13.90
2022-11-19T19:14:23.466Z,13.90
2022-11-19T19:16:51.126Z,13.90
2022-11-19T19:19:20.295Z,13.90
2022-11-19T19:21:47.788Z,13.90
2022-11-19T19:24:14.999Z,13.90
2022-11-19T19:26:42.188Z,13.80
2022-11-19T19:29:09.536Z,13.90
2022-11-19T19:31:37.338Z,13.90
2022-11-19T19:34:04.828Z,13.90
2022-11-19T19:36:32.174Z,13.90
2022-11-19T19:38:59.422Z,13.90
2022-11-19T19:41:27.509Z,14.50
2022-11-19T19:43:55.570Z,15.10
2022-11-19T19:46:23.733Z,15.60
2022-11-19T19:48:52.237Z,15.60
2022-11-19T19:51:20.686Z,15.30
2022-11-19T19:53:48.312Z,15.00
2022-11-19T19:56:15.559Z,14.80
2022-11-19T19:58:46.765Z,14.60
2022-11-19T20:01:15.350Z,14.60
2022-11-19T20:03:47.315Z,14.50
2022-11-19T20:06:17.127Z,14.40
2022-11-19T20:08:44.423Z,14.40
2022-11-19T20:11:13.216Z,14.40
2022-11-19T20:13:40.520Z,14.40
2022-11-19T20:16:17.645Z,14.30
2022-11-19T20:18:46.158Z,14.30
2022-11-19T20:21:14.968Z,14.30
2022-11-19T20:23:42.652Z,14.30
2022-11-19T20:26:17.197Z,14.30
2022-11-19T20:28:44.889Z,14.30
2022-11-19T20:31:13.732Z,14.20
2022-11-19T20:33:42.682Z,14.20
2022-11-19T20:36:10.581Z,14.20
2022-11-19T20:38:38.725Z,14.20
2022-11-19T20:41:06.804Z,14.20
2022-11-19T20:43:53.219Z,14.20
2022-11-19T20:46:21.375Z,14.20
2022-11-19T20:48:48.752Z,14.20
2022-11-19T20:51:16.352Z,14.20
2022-11-19T20:53:43.657Z,14.20
2022-11-19T20:56:10.903Z,14.20
2022-11-19T20:58:38.139Z,14.10
2022-11-19T21:01:07.043Z,14.20
2022-11-19T21:03:34.400Z,14.20
2022-11-19T21:06:03.089Z,14.10
2022-11-19T21:08:31.224Z,14.10
2022-11-19T21:11:11.684Z,14.10
2022-11-19T21:13:39.132Z,14.10
2022-11-19T21:16:12.053Z,14.10
2022-11-19T21:18:39.646Z,14.10
2022-11-19T21:21:07.147Z,14.10
2022-11-19T21:23:34.399Z,14.10
2022-11-19T21:26:02.327Z,14.10
2022-11-19T21:28:29.801Z,14.10
2022-11-19T21:30:57.120Z,14.00
2022-11-19T21:33:26.504Z,14.10
2022-11-19T21:35:55.109Z,14.10
2022-11-19T21:38:22.897Z,14.00
2022-11-19T21:40:51.443Z,14.00
2022-11-19T21:43:19.297Z,14.00
2022-11-19T21:45:46.674Z,14.00
2022-11-19T21:48:13.789Z,14.00
2022-11-19T21:50:41.507Z,14.00
2022-11-19T21:53:09.401Z,14.00
2022-11-19T21:55:36.859Z,14.00
2022-11-19T21:58:07.286Z,14.00
2022-11-19T22:00:34.570Z,14.00
2022-11-19T22:03:01.935Z,13.90
2022-11-19T22:05:29.076Z,14.00
2022-11-19T22:07:57.934Z,14.00
2022-11-19T22:10:25.040Z,14.10
2022-11-19T22:12:52.212Z,14.10
2022-11-19T22:15:19.500Z,14.10
2022-11-19T22:17:46.858Z,14.20
2022-11-19T22:20:14.044Z,14.20
2022-11-19T22:22:45.060Z,14.20
2022-11-19T22:25:12.817Z,14.10
2022-11-19T22:27:41.702Z,14.00
2022-11-19T22:30:10.255Z,14.00
2022-11-19T22:32:37.533Z,14.00
2022-11-19T22:35:05.019Z,13.90
2022-11-19T22:37:32.734Z,13.90
2022-11-19T22:39:59.995Z,13.90
2022-11-19T22:42:27.180Z,13.90
2022-11-19T22:44:54.351Z,13.80
2022-11-19T22:47:21.543Z,13.80
2022-11-19T22:49:48.724Z,13.80
2022-11-19T22:52:17.427Z,13.80
2022-11-19T22:54:44.656Z,13.80
2022-11-19T22:57:11.944Z,13.80
2022-11-19T22:59:39.105Z,13.80
2022-11-19T23:02:06.403Z,13.80
2022-11-19T23:04:33.523Z,13.80
2022-11-19T23:07:00.860Z,13.80
2022-11-19T23:09:28.180Z,13.70
2022-11-19T23:12:13.850Z,13.70
2022-11-19T23:14:41.787Z,13.70
2022-11-19T23:17:08.875Z,13.70
2022-11-19T23:19:36.734Z,13.70
2022-11-19T23:22:04.091Z,13.70
2022-11-19T23:24:31.225Z,13.70
2022-11-19T23:26:58.395Z,13.70
2022-11-19T23:29:25.545Z,13.60
2022-11-19T23:31:52.714Z,13.70
2022-11-19T23:34:19.784Z,13.60
2022-11-19T23:36:47.001Z,13.70
2022-11-19T23:39:15.162Z,13.70
2022-11-19T23:41:42.844Z,13.60
2022-11-19T23:44:09.969Z,13.60
2022-11-19T23:46:37.230Z,13.60
2022-11-19T23:49:05.413Z,13.60
2022-11-19T23:51:36.917Z,13.60
2022-11-19T23:54:04.397Z,13.60
2022-11-19T23:56:32.429Z,13.50
2022-11-19T23:59:00.511Z,13.60
